createdAt,value
2019-06-01T00:19:27.631Z,5.60
2019-06-01T00:34:50.104Z,5.53
2019-06-01T00:50:01.817Z,5.90
2019-06-01T01:05:22.739Z,5.87
2019-06-01T01:20:31.852Z,6.08
2019-06-01T01:35:40.994Z,5.85
2019-06-01T01:50:50.241Z,7.03
2019-06-01T02:05:59.251Z,5.65
2019-06-01T02:21:08.732Z,6.42
2019-06-01T02:36:19.075Z,6.12
2019-06-01T02:51:28.929Z,6.10
2019-06-01T03:06:41.647Z,6.05
2019-06-01T03:21:51.715Z,5.80
2019-06-01T03:37:01.113Z,5.40
2019-06-01T03:52:10.612Z,6.22
2019-06-01T04:07:19.899Z,6.30
2019-06-01T04:22:29.486Z,5.65
2019-06-01T04:37:41.006Z,5.30
2019-06-01T04:52:50.189Z,5.35
2019-06-01T05:07:58.658Z,5.08
2019-06-01T05:23:08.622Z,4.70
2019-06-01T05:38:18.501Z,4.92
2019-06-01T05:53:44.238Z,5.10
2019-06-01T06:08:56.167Z,5.45
2019-06-01T06:24:06.137Z,4.22
2019-06-01T06:39:15.757Z,5.37
2019-06-01T06:54:27.006Z,4.30
2019-06-01T07:09:37.338Z,4.17
2019-06-01T07:24:46.270Z,4.53
2019-06-01T07:39:57.062Z,4.70
2019-06-01T07:55:12.185Z,4.97
2019-06-01T08:10:23.107Z,4.30
2019-06-01T08:25:32.863Z,4.20
2019-06-01T08:40:41.616Z,4.05
2019-06-01T08:55:49.986Z,6.67
2019-06-01T09:11:00.753Z,3.65
2019-06-01T09:26:13.795Z,3.47
2019-06-01T09:41:24.341Z,3.25
2019-06-01T09:56:37.224Z,3.35
2019-06-01T10:11:47.005Z,2.72
2019-06-01T10:26:56.452Z,1.98
2019-06-01T10:42:06.292Z,3.22
2019-06-01T10:57:34.490Z,2.45
2019-06-01T11:51:26.956Z,2.67
2019-06-01T12:06:37.828Z,2.50
2019-06-01T12:21:51.379Z,2.30
2019-06-01T12:37:02.352Z,3.20
2019-06-01T12:52:29.244Z,1.82
2019-06-01T13:07:50.897Z,3.55
2019-06-01T13:22:47.713Z,3.30
2019-06-01T13:38:10.471Z,2.75
2019-06-01T13:53:10.163Z,1.77
2019-06-01T14:08:29.054Z,2.52
2019-06-01T14:23:30.343Z,3.08
2019-06-01T14:38:47.102Z,3.77
2019-06-01T14:54:08.482Z,4.20
2019-06-01T15:09:19.312Z,4.53
2019-06-01T15:41:58.909Z,5.45
2019-06-01T15:57:11.481Z,7.53
2019-06-01T16:12:41.085Z,6.45
2019-06-01T16:27:54.622Z,4.70
2019-06-01T16:43:15.485Z,3.35
2019-06-01T18:19:56.628Z,5.28
2019-06-01T18:35:07.597Z,5.87
2019-06-01T18:50:17.768Z,7.30
2019-06-01T19:05:29.180Z,8.90
2019-06-01T19:20:39.168Z,11.93
2019-06-01T19:35:49.764Z,8.88
2019-06-01T19:51:00.520Z,9.43
2019-06-01T20:06:09.111Z,10.78
2019-06-01T20:21:20.665Z,11.70
2019-06-01T20:36:30.384Z,12.18
2019-06-01T20:51:43.520Z,13.83
2019-06-01T21:07:17.836Z,10.15
2019-06-01T21:22:25.854Z,10.45
2019-06-01T21:37:34.952Z,8.70
2019-06-01T21:52:54.303Z,11.20
2019-06-01T22:08:07.072Z,10.23
2019-06-01T22:23:17.900Z,10.70
2019-06-01T22:38:30.866Z,10.95
2019-06-01T22:53:40.587Z,9.50
2019-06-01T23:25:07.210Z,11.33
2019-06-01T23:40:16.975Z,11.83
